createdAt,value
2023-04-13T00:01:45.969Z,21.33
2023-04-13T00:04:15.225Z,16.33
2023-04-13T00:06:47.138Z,19.80
2023-04-13T00:09:18.992Z,17.50
2023-04-13T00:11:49.184Z,18.33
2023-04-13T00:14:18.886Z,11.88
2023-04-13T00:16:48.054Z,17.92
2023-04-13T00:19:17.721Z,16.90
2023-04-13T00:21:47.437Z,12.52
2023-04-13T00:24:18.174Z,16.17
2023-04-13T00:26:47.474Z,13.40
2023-04-13T00:29:16.584Z,15.05
2023-04-13T00:31:46.298Z,14.95
2023-04-13T00:34:15.585Z,21.40
2023-04-13T00:36:44.550Z,23.20
2023-04-13T00:39:13.750Z,12.52
2023-04-13T00:41:46.960Z,20.30
2023-04-13T00:44:16.157Z,18.40
2023-04-13T00:46:46.573Z,16.98
2023-04-13T00:49:17.066Z,16.03
2023-04-13T00:51:46.668Z,23.27
2023-04-13T00:54:16.975Z,31.40
2023-04-13T00:56:51.026Z,15.20
2023-04-13T00:59:21.027Z,17.33
2023-04-13T01:01:56.703Z,21.08
2023-04-13T01:04:27.456Z,25.95
2023-04-13T01:07:06.202Z,16.17
2023-04-13T01:09:41.906Z,19.55
2023-04-13T01:12:17.952Z,22.63
2023-04-13T01:14:50.298Z,17.17
2023-04-13T01:17:25.745Z,15.10
2023-04-13T01:20:00.262Z,18.65
2023-04-13T01:22:35.760Z,14.10
2023-04-13T01:25:22.501Z,12.25
2023-04-13T01:27:56.229Z,17.70
2023-04-13T01:30:28.497Z,9.60
2023-04-13T01:33:02.742Z,17.65
2023-04-13T01:35:34.012Z,16.08
2023-04-13T01:38:03.468Z,13.20
2023-04-13T01:40:34.777Z,16.40
2023-04-13T01:43:05.352Z,22.20
2023-04-13T01:45:54.613Z,17.70
2023-04-13T01:48:30.894Z,18.10
2023-04-13T01:51:17.231Z,13.75
2023-04-13T01:53:58.170Z,15.98
2023-04-13T01:56:28.184Z,17.25
2023-04-13T01:59:03.143Z,11.13
2023-04-13T02:01:32.747Z,12.85
2023-04-13T02:04:02.849Z,16.92
2023-04-13T02:06:33.727Z,13.05
2023-04-13T02:09:07.463Z,15.85
2023-04-13T02:11:37.391Z,17.83
2023-04-13T02:14:09.677Z,12.25
2023-04-13T02:16:39.066Z,13.93
2023-04-13T02:19:08.802Z,14.30
2023-04-13T02:21:38.487Z,14.77
2023-04-13T02:24:08.464Z,18.02
2023-04-13T02:26:38.285Z,12.27
2023-04-13T02:29:09.104Z,20.90
2023-04-13T02:31:43.569Z,15.55
2023-04-13T02:34:12.733Z,13.63
2023-04-13T02:36:43.229Z,11.25
2023-04-13T02:39:12.314Z,16.02
2023-04-13T02:41:43.652Z,15.00
2023-04-13T02:44:19.735Z,11.98
2023-04-13T02:46:55.405Z,13.85
2023-04-13T02:49:24.488Z,19.00
2023-04-13T02:52:12.213Z,9.05
2023-04-13T02:54:54.662Z,15.70
2023-04-13T02:57:27.331Z,7.43
2023-04-13T03:00:00.109Z,13.90
2023-04-13T03:02:39.088Z,11.73
2023-04-13T03:05:09.479Z,13.98
2023-04-13T03:07:39.606Z,12.70
2023-04-13T03:10:11.025Z,13.05
2023-04-13T03:12:40.145Z,10.40
2023-04-13T03:15:14.840Z,12.65
2023-04-13T03:17:44.405Z,17.13
2023-04-13T03:20:20.887Z,11.27
2023-04-13T03:22:56.285Z,11.13
2023-04-13T03:25:25.601Z,20.48
2023-04-13T03:27:54.682Z,11.80
2023-04-13T03:30:26.927Z,19.77
2023-04-13T03:33:02.472Z,13.60
2023-04-13T03:35:36.102Z,11.00
2023-04-13T03:38:07.317Z,10.23
2023-04-13T03:40:41.510Z,12.07
2023-04-13T03:43:10.508Z,11.55
2023-04-13T03:45:45.842Z,10.65
2023-04-13T03:48:17.608Z,12.95
2023-04-13T03:50:48.140Z,11.63
2023-04-13T03:53:20.816Z,10.98
2023-04-13T03:55:50.780Z,9.57
2023-04-13T03:58:19.998Z,11.35
2023-04-13T04:00:50.881Z,9.18
2023-04-13T04:03:39.873Z,9.88
2023-04-13T04:06:12.567Z,12.45
2023-04-13T04:08:49.605Z,13.52
2023-04-13T04:11:29.945Z,8.07
2023-04-13T04:13:59.356Z,9.65
2023-04-13T04:16:30.366Z,10.40
2023-04-13T04:19:07.557Z,9.43
2023-04-13T04:21:37.041Z,11.77
2023-04-13T04:24:20.668Z,8.57
2023-04-13T04:26:51.076Z,10.93
2023-04-13T04:29:22.371Z,9.15
2023-04-13T04:31:57.881Z,10.82
2023-04-13T04:34:27.594Z,11.18
2023-04-13T04:37:02.256Z,9.65
2023-04-13T04:39:35.435Z,4.32
2023-04-13T04:42:13.627Z,9.52
2023-04-13T04:44:44.651Z,6.50
2023-04-13T04:47:17.488Z,8.77
2023-04-13T04:50:04.062Z,12.30
2023-04-13T04:52:38.738Z,10.45
2023-04-13T04:55:08.711Z,10.77
2023-04-13T04:57:40.968Z,14.25
2023-04-13T05:00:15.622Z,8.68
2023-04-13T05:02:51.266Z,13.90
2023-04-13T05:05:21.000Z,11.65
2023-04-13T05:07:50.941Z,11.63
2023-04-13T05:10:20.733Z,6.75
2023-04-13T05:12:56.605Z,12.48
2023-04-13T05:15:29.250Z,15.55
2023-04-13T05:18:00.518Z,9.70
2023-04-13T05:20:32.142Z,9.77
2023-04-13T05:23:05.297Z,9.07
2023-04-13T05:25:39.683Z,6.43
2023-04-13T05:28:16.574Z,12.50
2023-04-13T05:30:46.528Z,5.95
2023-04-13T05:33:18.158Z,14.43
2023-04-13T05:35:50.535Z,9.57
2023-04-13T05:38:19.657Z,8.90
2023-04-13T05:40:48.715Z,9.60
2023-04-13T05:43:18.320Z,7.97
2023-04-13T05:45:51.529Z,12.30
2023-04-13T05:48:22.015Z,12.00
2023-04-13T05:50:58.682Z,9.00
2023-04-13T05:53:31.118Z,9.60
2023-04-13T05:56:00.288Z,8.00
2023-04-13T05:58:29.581Z,8.98
2023-04-13T06:01:13.378Z,12.63
2023-04-13T06:03:44.816Z,9.32
2023-04-13T06:06:17.530Z,10.40
2023-04-13T06:11:15.561Z,8.65
2023-04-13T06:13:44.747Z,10.85
2023-04-13T06:16:13.827Z,14.95
2023-04-13T06:18:44.246Z,12.43
2023-04-13T06:21:13.247Z,12.43
2023-04-13T06:23:42.287Z,10.20
2023-04-13T06:26:21.547Z,17.67
2023-04-13T06:28:57.250Z,7.78
2023-04-13T06:31:28.194Z,14.07
2023-04-13T06:34:02.612Z,10.40
2023-04-13T06:36:36.597Z,8.30
2023-04-13T06:39:05.812Z,10.38
2023-04-13T06:44:25.639Z,9.07
2023-04-13T06:46:57.378Z,14.48
2023-04-13T06:49:30.310Z,7.22
2023-04-13T06:51:59.490Z,7.63
2023-04-13T06:54:28.636Z,15.00
2023-04-13T06:57:03.816Z,10.93
2023-04-13T06:59:33.175Z,10.13
2023-04-13T07:02:02.343Z,11.52
2023-04-13T07:04:35.228Z,16.17
2023-04-13T07:07:06.088Z,17.63
2023-04-13T07:09:35.640Z,12.25
2023-04-13T07:12:07.915Z,11.60
2023-04-13T07:14:38.082Z,10.30
2023-04-13T07:19:40.780Z,9.90
2023-04-13T07:22:09.832Z,7.82
2023-04-13T07:24:39.076Z,11.27
2023-04-13T07:27:11.814Z,6.57
2023-04-13T07:29:41.152Z,13.18
2023-04-13T07:32:15.041Z,12.90
2023-04-13T07:34:48.033Z,7.88
2023-04-13T07:37:17.539Z,11.32
2023-04-13T07:39:46.518Z,9.15
2023-04-13T07:42:15.576Z,7.90
2023-04-13T07:44:49.792Z,10.60
2023-04-13T07:47:20.741Z,15.75
2023-04-13T07:49:51.906Z,12.93
2023-04-13T07:52:22.800Z,11.38
2023-04-13T07:54:53.445Z,7.65
2023-04-13T07:57:22.995Z,15.55
2023-04-13T07:59:58.359Z,9.27
2023-04-13T08:02:27.481Z,13.68
2023-04-13T08:05:01.251Z,7.25
2023-04-13T08:07:32.905Z,7.75
2023-04-13T08:10:04.188Z,7.90
2023-04-13T08:12:33.319Z,6.75
2023-04-13T08:15:03.155Z,9.02
2023-04-13T08:17:33.281Z,7.20
2023-04-13T08:20:07.803Z,7.75
2023-04-13T08:22:37.619Z,10.38
2023-04-13T08:25:08.398Z,9.37
2023-04-13T08:27:37.495Z,8.48
2023-04-13T08:30:08.316Z,8.93
2023-04-13T08:32:46.991Z,7.47
2023-04-13T08:35:17.681Z,11.85
2023-04-13T08:37:46.933Z,6.68
2023-04-13T08:40:16.217Z,9.98
2023-04-13T08:42:46.420Z,8.63
2023-04-13T08:45:16.856Z,5.80
2023-04-13T08:47:50.079Z,7.82
2023-04-13T08:50:24.011Z,11.95
2023-04-13T08:52:55.778Z,8.48
2023-04-13T08:55:26.525Z,7.60
2023-04-13T08:58:00.479Z,9.13
2023-04-13T09:00:31.275Z,8.02
2023-04-13T09:03:06.247Z,7.75
2023-04-13T09:05:44.308Z,10.43
2023-04-13T09:08:14.238Z,9.27
2023-04-13T09:10:47.066Z,9.23
2023-04-13T09:13:16.637Z,11.55
2023-04-13T09:15:47.497Z,10.70
2023-04-13T09:18:49.261Z,9.68
2023-04-13T09:21:20.351Z,8.48
2023-04-13T09:23:56.983Z,7.05
2023-04-13T09:26:27.204Z,8.93
2023-04-13T09:28:58.357Z,10.38
2023-04-13T09:33:56.450Z,12.60
2023-04-13T09:36:29.505Z,9.23
2023-04-13T09:38:58.860Z,8.13
2023-04-13T09:41:36.243Z,7.15
2023-04-13T09:44:17.919Z,10.63
2023-04-13T09:46:57.419Z,8.93
2023-04-13T09:49:26.844Z,8.98
2023-04-13T09:51:57.460Z,11.25
2023-04-13T09:54:27.095Z,12.55
2023-04-13T09:56:58.049Z,10.00
2023-04-13T09:59:28.442Z,11.20
2023-04-13T10:01:57.711Z,5.90
2023-04-13T10:04:27.264Z,7.80
2023-04-13T10:06:57.768Z,5.88
2023-04-13T10:09:27.359Z,6.87
2023-04-13T10:12:00.149Z,7.45
2023-04-13T10:14:33.915Z,9.93
2023-04-13T10:17:17.591Z,9.68
2023-04-13T10:19:49.329Z,8.63
2023-04-13T10:22:22.891Z,8.52
2023-04-13T10:24:53.463Z,6.60
2023-04-13T10:27:23.829Z,8.10
2023-04-13T10:29:53.571Z,6.00
2023-04-13T10:32:24.122Z,7.07
2023-04-13T10:34:54.003Z,10.05
2023-04-13T10:37:26.359Z,8.40
2023-04-13T10:40:05.778Z,8.85
2023-04-13T10:42:51.730Z,11.50
2023-04-13T10:45:24.182Z,8.52
2023-04-13T10:50:23.769Z,7.53
2023-04-13T10:53:03.927Z,7.07
2023-04-13T10:55:33.518Z,7.70
2023-04-13T10:58:04.079Z,11.77
2023-04-13T11:00:45.609Z,6.80
2023-04-13T11:03:19.233Z,8.57
2023-04-13T11:05:49.881Z,5.10
2023-04-13T11:08:21.571Z,10.00
2023-04-13T11:10:54.977Z,8.98
2023-04-13T11:13:26.914Z,9.77
2023-04-13T11:16:03.159Z,5.63
2023-04-13T11:18:32.988Z,10.45
2023-04-13T11:21:04.722Z,6.80
2023-04-13T11:23:37.541Z,5.53
2023-04-13T11:26:06.984Z,5.45
2023-04-13T11:28:41.858Z,9.02
2023-04-13T11:31:11.652Z,7.28
2023-04-13T11:33:41.527Z,8.70
2023-04-13T11:36:11.965Z,6.13
2023-04-13T11:38:43.741Z,6.72
2023-04-13T11:41:16.833Z,10.77
2023-04-13T11:43:48.516Z,7.38
2023-04-13T11:48:54.949Z,8.70
2023-04-13T11:51:25.665Z,7.15
2023-04-13T11:53:56.464Z,7.75
2023-04-13T11:56:26.468Z,10.05
2023-04-13T11:58:56.173Z,7.30
2023-04-13T12:01:28.296Z,9.10
2023-04-13T12:04:14.562Z,8.70
2023-04-13T12:06:47.787Z,5.03
2023-04-13T12:09:20.848Z,8.07
2023-04-13T12:12:08.395Z,6.10
2023-04-13T12:19:51.880Z,5.20
2023-04-13T12:22:21.709Z,7.10
2023-04-13T12:24:53.488Z,5.50
2023-04-13T12:27:23.153Z,5.53
2023-04-13T12:29:52.679Z,5.93
2023-04-13T12:32:21.800Z,3.90
2023-04-13T12:34:50.807Z,4.78
2023-04-13T12:37:20.103Z,6.93
2023-04-13T12:39:53.129Z,6.70
2023-04-13T12:42:22.083Z,9.40
2023-04-13T12:44:51.057Z,5.28
2023-04-13T12:47:20.299Z,5.28
2023-04-13T12:49:49.447Z,6.65
2023-04-13T12:52:18.829Z,5.38
2023-04-13T12:54:47.887Z,7.05
2023-04-13T12:57:18.445Z,5.85
2023-04-13T12:59:47.913Z,6.55
2023-04-13T13:02:17.009Z,6.13
2023-04-13T13:04:46.056Z,4.00
2023-04-13T13:07:15.187Z,5.43
2023-04-13T13:09:44.264Z,5.03
2023-04-13T13:12:13.314Z,5.05
2023-04-13T13:14:43.923Z,4.65
2023-04-13T13:17:12.948Z,6.28
2023-04-13T13:19:41.975Z,7.43
2023-04-13T13:22:11.009Z,5.78
2023-04-13T13:24:40.198Z,5.88
2023-04-13T13:27:37.283Z,6.43
2023-04-13T13:30:03.476Z,8.57
2023-04-13T13:32:32.702Z,6.20
2023-04-13T13:35:01.938Z,9.43
2023-04-13T13:37:31.164Z,5.60
2023-04-13T13:40:01.655Z,6.28
2023-04-13T13:42:44.198Z,3.60
2023-04-13T13:45:21.089Z,3.95
2023-04-13T13:47:58.571Z,3.38
2023-04-13T13:50:41.540Z,3.17
2023-04-13T13:53:11.792Z,3.95
2023-04-13T13:55:43.701Z,2.65
2023-04-13T13:58:12.784Z,4.05
2023-04-13T14:00:43.246Z,3.20
2023-04-13T14:03:12.814Z,3.80
2023-04-13T14:05:43.201Z,3.15
2023-04-13T14:08:12.267Z,2.97
2023-04-13T14:10:47.526Z,5.03
2023-04-13T14:13:17.059Z,2.63
2023-04-13T14:15:48.185Z,5.35
2023-04-13T14:18:17.358Z,2.58
2023-04-13T14:20:46.582Z,6.25
2023-04-13T14:23:16.101Z,7.95
2023-04-13T14:25:45.260Z,5.32
2023-04-13T14:28:14.777Z,6.93
2023-04-13T14:30:43.948Z,6.13
2023-04-13T14:33:14.829Z,8.35
2023-04-13T14:35:44.001Z,5.75
2023-04-13T14:38:13.036Z,5.45
2023-04-13T14:40:42.039Z,7.25
2023-04-13T14:43:12.298Z,5.40
2023-04-13T14:45:41.393Z,7.93
2023-04-13T14:48:10.550Z,8.20
2023-04-13T14:50:41.296Z,5.22
2023-04-13T14:53:10.383Z,5.03
2023-04-13T14:55:39.589Z,5.78
2023-04-13T14:58:08.700Z,4.30
2023-04-13T15:00:41.228Z,2.47
2023-04-13T15:03:12.153Z,5.13
2023-04-13T15:05:45.403Z,5.32
2023-04-13T15:08:16.721Z,4.30
2023-04-13T15:10:46.562Z,5.13
2023-04-13T15:13:15.837Z,4.57
2023-04-13T15:15:44.845Z,3.75
2023-04-13T15:18:13.846Z,2.47
2023-04-13T15:20:44.357Z,3.85
2023-04-13T15:23:13.465Z,6.32
2023-04-13T15:25:42.827Z,1.73
2023-04-13T15:28:11.974Z,4.45
2023-04-13T15:30:43.257Z,6.28
2023-04-13T15:33:12.727Z,4.50
2023-04-13T15:35:43.237Z,6.22
2023-04-13T15:38:12.320Z,3.33
2023-04-13T15:40:42.240Z,3.25
2023-04-13T15:43:11.509Z,2.88
2023-04-13T15:45:41.179Z,2.15
2023-04-13T15:48:10.323Z,4.88
2023-04-13T15:50:39.432Z,4.20
2023-04-13T15:53:12.106Z,4.65
2023-04-13T15:55:42.555Z,3.88
2023-04-13T15:58:14.243Z,7.23
2023-04-13T16:00:43.314Z,4.78
2023-04-13T16:03:12.517Z,3.53
2023-04-13T16:05:41.710Z,6.68
2023-04-13T16:08:12.231Z,4.45
2023-04-13T16:10:43.886Z,3.83
2023-04-13T16:13:18.897Z,5.75
2023-04-13T16:15:52.720Z,3.70
2023-04-13T16:18:22.305Z,7.32
2023-04-13T16:20:54.564Z,10.50
2023-04-13T16:23:25.127Z,7.85
2023-04-13T16:25:56.844Z,5.47
2023-04-13T16:28:27.011Z,4.38
2023-04-13T16:30:56.298Z,5.03
2023-04-13T16:33:25.430Z,5.55
2023-04-13T16:35:54.400Z,5.15
2023-04-13T16:38:25.065Z,13.15
2023-04-13T16:40:54.119Z,12.98
2023-04-13T16:43:23.227Z,10.38
2023-04-13T16:45:52.374Z,8.30
2023-04-13T16:48:23.727Z,4.45
2023-04-13T16:53:29.681Z,4.35
2023-04-13T16:55:58.814Z,5.20
2023-04-13T16:58:27.891Z,4.53
2023-04-13T17:00:57.517Z,4.20
2023-04-13T17:03:26.865Z,2.85
2023-04-13T17:05:56.414Z,9.45
2023-04-13T17:08:25.763Z,6.13
2023-04-13T17:10:56.273Z,3.63
2023-04-13T17:13:25.330Z,5.97
2023-04-13T17:15:54.445Z,3.80
2023-04-13T17:18:23.486Z,2.97
2023-04-13T17:20:55.796Z,3.22
2023-04-13T17:23:25.199Z,5.93
2023-04-13T17:25:56.600Z,4.40
2023-04-13T17:30:54.459Z,7.53
2023-04-13T17:33:24.362Z,5.68
2023-04-13T17:35:54.746Z,4.85
2023-04-13T17:38:24.009Z,5.83
2023-04-13T17:40:53.094Z,7.57
2023-04-13T17:43:24.047Z,3.88
2023-04-13T17:45:53.136Z,7.90
2023-04-13T17:48:22.373Z,5.80
2023-04-13T17:50:51.666Z,3.15
2023-04-13T17:53:20.676Z,3.75
2023-04-13T17:55:49.726Z,5.28
2023-04-13T17:58:18.828Z,8.60
2023-04-13T18:00:49.352Z,7.45
2023-04-13T18:03:18.690Z,2.83
2023-04-13T18:05:47.980Z,6.38
2023-04-13T18:08:17.125Z,3.35
2023-04-13T18:10:46.240Z,4.30
2023-04-13T18:13:15.493Z,3.47
2023-04-13T18:15:48.414Z,6.32
2023-04-13T18:18:19.025Z,3.95
2023-04-13T18:20:48.102Z,5.35
2023-04-13T18:23:17.182Z,6.25
2023-04-13T18:25:48.914Z,7.65
2023-04-13T18:28:18.347Z,5.97
2023-04-13T18:30:47.466Z,7.93
2023-04-13T18:33:16.555Z,4.22
2023-04-13T18:35:47.148Z,4.07
2023-04-13T18:38:16.287Z,5.65
2023-04-13T18:40:45.917Z,10.05
2023-04-13T18:43:14.979Z,5.63
2023-04-13T18:45:44.305Z,4.47
2023-04-13T18:48:13.715Z,5.10
2023-04-13T18:50:42.809Z,7.68
2023-04-13T18:53:13.222Z,7.30
2023-04-13T18:55:43.392Z,5.87
2023-04-13T18:58:13.906Z,6.22
2023-04-13T19:00:42.978Z,9.18
2023-04-13T19:03:12.145Z,11.38
2023-04-13T19:05:41.319Z,11.27
2023-04-13T19:08:13.474Z,12.32
2023-04-13T19:10:43.479Z,10.63
2023-04-13T19:13:14.363Z,8.68
2023-04-13T19:15:43.513Z,10.32
2023-04-13T19:18:12.699Z,8.32
2023-04-13T19:20:41.847Z,7.43
2023-04-13T19:23:12.381Z,11.88
2023-04-13T19:25:41.644Z,9.75
2023-04-13T19:28:10.809Z,11.52
2023-04-13T19:30:39.833Z,8.57
2023-04-13T19:33:09.039Z,7.45
2023-04-13T19:35:38.318Z,6.25
2023-04-13T19:38:07.360Z,8.70
2023-04-13T19:40:37.866Z,6.13
2023-04-13T19:43:06.993Z,8.57
2023-04-13T19:45:36.548Z,7.95
2023-04-13T19:48:06.672Z,6.40
2023-04-13T19:50:35.797Z,8.30
2023-04-13T19:53:04.915Z,7.30
2023-04-13T19:55:34.075Z,9.50
2023-04-13T19:58:04.755Z,6.95
2023-04-13T20:00:34.242Z,11.27
2023-04-13T20:03:04.180Z,6.75
2023-04-13T20:05:33.979Z,10.18
2023-04-13T20:08:03.320Z,14.55
2023-04-13T20:10:33.329Z,7.70
2023-04-13T20:13:03.755Z,5.75
2023-04-13T20:15:33.482Z,10.00
2023-04-13T20:18:06.452Z,8.32
2023-04-13T20:20:37.835Z,11.25
2023-04-13T20:25:38.530Z,9.32
2023-04-13T20:28:10.301Z,4.53
2023-04-13T20:30:40.187Z,9.25
2023-04-13T20:33:09.279Z,9.38
2023-04-13T20:35:38.434Z,5.63
2023-04-13T20:38:07.535Z,8.95
2023-04-13T20:40:37.567Z,7.20
2023-04-13T20:43:08.393Z,7.07
2023-04-13T20:45:38.375Z,7.35
2023-04-13T20:50:41.795Z,7.07
2023-04-13T20:53:11.569Z,6.65
2023-04-13T20:55:42.026Z,5.68
2023-04-13T20:58:12.514Z,7.67
2023-04-13T21:00:43.680Z,6.13
2023-04-13T21:03:12.976Z,7.43
2023-04-13T21:05:42.247Z,7.60
2023-04-13T21:08:12.538Z,6.85
2023-04-13T21:10:41.603Z,6.63
2023-04-13T21:13:12.130Z,10.35
2023-04-13T21:15:41.293Z,6.50
2023-04-13T21:18:10.708Z,7.65
2023-04-13T21:20:40.782Z,9.50
2023-04-13T21:23:09.868Z,4.22
2023-04-13T21:25:40.143Z,6.72
2023-04-13T21:28:09.182Z,8.48
2023-04-13T21:30:39.713Z,7.50
2023-04-13T21:33:08.717Z,6.10
2023-04-13T21:35:37.862Z,7.00
2023-04-13T21:38:06.902Z,6.03
2023-04-13T21:40:36.508Z,5.55
2023-04-13T21:43:05.540Z,7.97
2023-04-13T21:45:34.696Z,6.10
2023-04-13T21:48:05.596Z,8.23
2023-04-13T21:50:34.750Z,6.25
2023-04-13T21:53:04.165Z,5.38
2023-04-13T21:55:33.202Z,6.38
2023-04-13T21:58:02.262Z,5.40
2023-04-13T22:00:31.451Z,12.85
2023-04-13T22:03:00.823Z,5.28
2023-04-13T22:05:31.887Z,5.28
2023-04-13T22:08:01.108Z,4.63
2023-04-13T22:10:30.184Z,8.50
2023-04-13T22:12:59.433Z,9.90
2023-04-13T22:15:28.563Z,7.22
2023-04-13T22:17:57.704Z,5.15
2023-04-13T22:20:26.839Z,6.03
2023-04-13T22:22:57.353Z,10.00
2023-04-13T22:25:28.789Z,9.23
2023-04-13T22:27:57.786Z,8.55
2023-04-13T22:30:26.842Z,5.80
2023-04-13T22:32:56.850Z,9.05
2023-04-13T22:35:26.727Z,6.80
2023-04-13T22:37:57.172Z,7.05
2023-04-13T22:40:29.138Z,10.27
2023-04-13T22:42:58.226Z,6.95
2023-04-13T22:45:27.310Z,5.63
2023-04-13T22:47:56.304Z,8.13
2023-04-13T22:50:25.375Z,8.93
2023-04-13T22:52:54.558Z,7.07
2023-04-13T22:55:27.914Z,8.25
2023-04-13T22:57:56.983Z,12.90
2023-04-13T23:00:26.038Z,9.55
2023-04-13T23:02:56.285Z,10.82
2023-04-13T23:05:25.625Z,8.52
2023-04-13T23:07:54.674Z,8.07
2023-04-13T23:10:27.812Z,8.68
2023-04-13T23:12:57.130Z,7.95
2023-04-13T23:15:26.341Z,7.45
2023-04-13T23:17:55.808Z,8.50
2023-04-13T23:20:25.241Z,7.72
2023-04-13T23:22:54.327Z,7.40
2023-04-13T23:25:25.376Z,13.05
2023-04-13T23:27:54.633Z,9.40
2023-04-13T23:30:23.904Z,8.27
2023-04-13T23:32:52.966Z,12.77
2023-04-13T23:35:22.215Z,5.25
2023-04-13T23:37:51.394Z,4.68
2023-04-13T23:40:20.611Z,5.80
2023-04-13T23:42:51.078Z,7.60
2023-04-13T23:45:20.094Z,4.47
2023-04-13T23:47:49.339Z,7.30
2023-04-13T23:50:20.913Z,13.57
2023-04-13T23:52:49.992Z,14.05
2023-04-13T23:55:19.159Z,20.70
2023-04-13T23:57:48.200Z,19.98
